createdAt,value
2022-11-04T00:02:09.281Z,11.20
2022-11-04T00:04:38.452Z,11.10
2022-11-04T00:07:26.934Z,11.10
2022-11-04T00:09:54.729Z,11.00
2022-11-04T00:12:27.252Z,10.80
2022-11-04T00:15:15.111Z,10.60
2022-11-04T00:17:41.933Z,10.60
2022-11-04T00:20:34.991Z,10.50
2022-11-04T00:23:20.404Z,10.40
2022-11-04T00:26:05.808Z,10.20
2022-11-04T00:28:45.799Z,10.10
2022-11-04T00:31:31.109Z,9.90
2022-11-04T00:33:59.307Z,9.80
2022-11-04T00:36:28.464Z,9.70
2022-11-04T00:38:56.276Z,9.70
2022-11-04T00:41:30.651Z,9.60
2022-11-04T00:43:59.370Z,9.50
2022-11-04T00:46:27.300Z,9.40
2022-11-04T00:48:55.170Z,9.20
2022-11-04T00:51:23.058Z,9.20
2022-11-04T00:53:52.333Z,9.20
2022-11-04T00:56:20.146Z,9.00
2022-11-04T00:58:49.920Z,9.10
2022-11-04T01:01:18.438Z,9.20
2022-11-04T01:03:46.461Z,9.00
2022-11-04T01:06:14.300Z,9.20
2022-11-04T01:08:42.142Z,9.20
2022-11-04T01:11:11.396Z,9.00
2022-11-04T01:13:39.502Z,9.00
2022-11-04T01:16:08.529Z,9.00
2022-11-04T01:18:36.391Z,8.90
2022-11-04T01:21:04.988Z,9.00
2022-11-04T01:23:33.263Z,8.90
2022-11-04T01:26:01.098Z,9.00
2022-11-04T01:28:30.264Z,9.00
2022-11-04T01:30:58.057Z,8.90
2022-11-04T01:33:25.897Z,8.90
2022-11-04T01:35:53.717Z,9.10
2022-11-04T01:38:21.540Z,9.10
2022-11-04T01:40:49.368Z,9.00
2022-11-04T01:43:17.871Z,9.00
2022-11-04T01:45:49.844Z,8.90
2022-11-04T01:48:19.419Z,9.00
2022-11-04T01:50:47.238Z,8.90
2022-11-04T01:53:16.461Z,9.10
2022-11-04T01:55:54.829Z,8.90
2022-11-04T01:58:23.843Z,8.90
2022-11-04T02:00:53.030Z,8.90
2022-11-04T02:03:21.946Z,8.90
2022-11-04T02:05:49.821Z,8.90
2022-11-04T02:08:17.830Z,8.90
2022-11-04T02:14:33.459Z,9.10
2022-11-04T02:17:05.349Z,8.90
2022-11-04T02:19:47.698Z,8.80
2022-11-04T02:22:32.750Z,8.80
2022-11-04T02:25:23.534Z,8.80
2022-11-04T02:28:05.755Z,8.80
2022-11-04T02:30:35.484Z,8.70
2022-11-04T02:33:12.198Z,8.70
2022-11-04T02:35:43.271Z,8.80
2022-11-04T02:38:14.958Z,8.90
2022-11-04T02:40:44.492Z,8.80
2022-11-04T02:43:18.874Z,8.80
2022-11-04T02:45:49.008Z,8.90
2022-11-04T02:48:21.494Z,8.80
2022-11-04T02:50:52.884Z,8.90
2022-11-04T02:53:22.882Z,8.90
2022-11-04T02:55:52.341Z,9.10
2022-11-04T02:58:55.408Z,8.90
2022-11-04T03:01:25.950Z,9.00
2022-11-04T03:06:39.600Z,9.10
2022-11-04T03:09:08.050Z,8.90
2022-11-04T03:11:36.889Z,9.00
2022-11-04T03:14:07.235Z,8.90
2022-11-04T03:16:38.668Z,9.00
2022-11-04T03:19:09.914Z,8.90
2022-11-04T03:21:40.414Z,8.90
2022-11-04T03:24:08.998Z,8.90
2022-11-04T03:26:43.244Z,8.80
2022-11-04T03:29:26.289Z,8.60
2022-11-04T03:32:13.898Z,8.60
2022-11-04T03:34:42.379Z,8.70
2022-11-04T03:37:13.980Z,8.70
2022-11-04T03:39:44.767Z,8.70
2022-11-04T03:42:21.274Z,8.70
2022-11-04T03:44:50.637Z,8.70
2022-11-04T03:47:23.219Z,8.80
2022-11-04T03:49:52.418Z,8.70
2022-11-04T03:52:20.693Z,8.80
2022-11-04T03:54:49.385Z,8.80
2022-11-04T03:57:38.718Z,8.70
2022-11-04T04:00:11.024Z,8.80
2022-11-04T04:03:01.112Z,8.80
2022-11-04T04:05:30.977Z,8.80
2022-11-04T04:08:04.321Z,8.70
2022-11-04T04:10:41.097Z,8.70
2022-11-04T04:13:21.942Z,8.80
2022-11-04T04:15:53.602Z,9.10
2022-11-04T04:18:27.656Z,9.00
2022-11-04T04:20:56.425Z,9.00
2022-11-04T04:23:43.635Z,8.90
2022-11-04T04:26:29.658Z,8.80
2022-11-04T04:28:58.427Z,8.70
2022-11-04T04:31:58.653Z,8.80
2022-11-04T04:34:29.473Z,8.80
2022-11-04T04:37:01.662Z,8.70
2022-11-04T04:39:52.364Z,8.70
2022-11-04T04:42:38.462Z,8.70
2022-11-04T04:45:10.128Z,8.60
2022-11-04T04:47:44.128Z,8.60
2022-11-04T04:50:16.825Z,8.70
2022-11-04T04:52:51.761Z,8.70
2022-11-04T04:55:20.426Z,8.70
2022-11-04T04:57:51.876Z,8.60
2022-11-04T05:11:15.843Z,8.70
2022-11-04T05:13:44.311Z,8.70
2022-11-04T05:16:12.601Z,8.80
2022-11-04T05:18:40.874Z,8.70
2022-11-04T05:21:09.814Z,8.80
2022-11-04T05:23:39.349Z,8.80
2022-11-04T05:26:07.369Z,8.80
2022-11-04T05:28:35.715Z,8.70
2022-11-04T05:31:05.233Z,8.60
2022-11-04T05:33:33.284Z,8.70
2022-11-04T05:36:07.889Z,8.70
2022-11-04T05:38:36.292Z,8.60
2022-11-04T05:41:06.111Z,8.60
2022-11-04T05:43:34.676Z,8.70
2022-11-04T05:46:03.119Z,8.70
2022-11-04T05:48:34.042Z,8.70
2022-11-04T05:51:04.641Z,8.70
2022-11-04T05:53:32.846Z,8.50
2022-11-04T05:56:01.002Z,8.50
2022-11-04T05:58:30.468Z,8.60
2022-11-04T06:01:15.606Z,8.60
2022-11-04T06:03:44.109Z,8.70
2022-11-04T06:06:12.452Z,8.60
2022-11-04T06:08:45.054Z,8.60
2022-11-04T06:11:13.696Z,8.50
2022-11-04T06:13:43.503Z,8.60
2022-11-04T06:16:12.089Z,8.40
2022-11-04T06:18:40.163Z,8.40
2022-11-04T06:21:10.282Z,8.40
2022-11-04T06:23:38.429Z,8.50
2022-11-04T06:26:06.858Z,8.50
2022-11-04T06:28:35.994Z,8.50
2022-11-04T06:31:06.885Z,8.50
2022-11-04T06:33:37.032Z,8.30
2022-11-04T06:36:06.496Z,8.30
2022-11-04T06:38:35.711Z,8.40
2022-11-04T06:43:37.285Z,8.50
2022-11-04T06:46:07.152Z,8.40
2022-11-04T06:48:35.238Z,8.30
2022-11-04T06:51:03.429Z,8.20
2022-11-04T06:53:31.638Z,8.20
2022-11-04T06:56:04.134Z,8.30
2022-11-04T06:58:32.254Z,8.20
2022-11-04T07:01:00.476Z,8.10
2022-11-04T07:03:30.384Z,8.10
2022-11-04T07:05:58.356Z,8.10
2022-11-04T07:08:26.573Z,8.30
2022-11-04T07:10:56.420Z,8.30
2022-11-04T07:13:24.525Z,8.20
2022-11-04T07:15:52.763Z,8.30
2022-11-04T07:18:21.030Z,8.20
2022-11-04T07:20:50.338Z,8.30
2022-11-04T07:23:18.703Z,8.30
2022-11-04T07:25:46.844Z,8.20
2022-11-04T07:28:15.118Z,8.10
2022-11-04T07:30:43.336Z,8.00
2022-11-04T07:33:11.581Z,8.10
2022-11-04T07:35:39.694Z,8.20
2022-11-04T07:38:09.491Z,8.20
2022-11-04T07:40:39.421Z,8.00
2022-11-04T07:43:07.958Z,8.00
2022-11-04T07:45:35.837Z,7.90
2022-11-04T07:48:03.782Z,7.80
2022-11-04T07:50:31.742Z,7.80
2022-11-04T07:53:00.727Z,7.90
2022-11-04T07:55:30.173Z,7.70
2022-11-04T07:57:58.161Z,7.80
2022-11-04T08:00:26.267Z,7.80
2022-11-04T08:02:54.622Z,7.80
2022-11-04T08:05:22.683Z,7.90
2022-11-04T08:07:50.605Z,8.00
2022-11-04T08:10:18.743Z,8.10
2022-11-04T08:12:48.163Z,7.90
2022-11-04T08:15:16.134Z,7.80
2022-11-04T08:17:44.251Z,7.80
2022-11-04T08:20:12.902Z,7.90
2022-11-04T08:22:40.918Z,7.80
2022-11-04T08:25:11.347Z,7.70
2022-11-04T08:27:39.335Z,7.50
2022-11-04T08:30:10.476Z,7.60
2022-11-04T08:32:38.413Z,7.50
2022-11-04T08:35:09.166Z,7.60
2022-11-04T08:37:37.195Z,7.70
2022-11-04T08:40:06.123Z,7.70
2022-11-04T08:42:34.174Z,7.40
2022-11-04T08:45:02.152Z,7.50
2022-11-04T08:47:31.474Z,7.60
2022-11-04T08:49:59.734Z,7.50
2022-11-04T08:52:27.738Z,8.00
2022-11-04T08:54:57.393Z,7.80
2022-11-04T08:57:26.097Z,7.70
2022-11-04T08:59:54.390Z,7.90
2022-11-04T09:02:22.384Z,7.60
2022-11-04T09:04:52.224Z,7.50
2022-11-04T09:07:20.275Z,7.60
2022-11-04T09:09:48.607Z,7.70
2022-11-04T09:12:16.579Z,7.80
2022-11-04T09:14:44.708Z,7.40
2022-11-04T09:17:13.087Z,7.40
2022-11-04T09:19:41.344Z,7.40
2022-11-04T09:22:10.662Z,7.40
2022-11-04T09:24:38.799Z,7.30
2022-11-04T09:27:06.801Z,7.30
2022-11-04T09:29:36.401Z,7.50
2022-11-04T09:32:04.674Z,7.50
2022-11-04T09:34:32.780Z,7.40
2022-11-04T09:37:00.691Z,7.70
2022-11-04T09:39:30.269Z,7.60
2022-11-04T09:42:03.562Z,7.60
2022-11-04T09:44:43.535Z,7.50
2022-11-04T09:47:23.470Z,7.50
2022-11-04T09:49:52.761Z,7.60
2022-11-04T09:52:22.991Z,7.70
2022-11-04T09:54:56.048Z,7.80
2022-11-04T09:57:24.477Z,7.80
2022-11-04T09:59:52.429Z,7.80
2022-11-04T10:02:28.812Z,7.70
2022-11-04T10:05:03.858Z,7.50
2022-11-04T10:07:53.236Z,7.50
2022-11-04T10:10:25.118Z,7.40
2022-11-04T10:13:03.805Z,7.60
2022-11-04T10:15:55.756Z,7.60
2022-11-04T10:18:30.843Z,7.60
2022-11-04T10:21:02.091Z,7.50
2022-11-04T10:23:33.527Z,7.60
2022-11-04T10:26:07.509Z,7.60
2022-11-04T10:28:38.914Z,7.60
2022-11-04T10:31:07.262Z,7.60
2022-11-04T10:33:36.663Z,7.70
2022-11-04T10:36:07.715Z,7.60
2022-11-04T10:38:37.769Z,7.50
2022-11-04T10:41:17.645Z,7.60
2022-11-04T10:43:45.562Z,7.50
2022-11-04T10:46:21.147Z,7.50
2022-11-04T10:48:51.376Z,7.40
2022-11-04T10:51:22.151Z,7.40
2022-11-04T10:53:51.550Z,7.50
2022-11-04T10:56:23.726Z,7.40
2022-11-04T10:58:51.957Z,7.30
2022-11-04T11:01:28.432Z,7.40
2022-11-04T11:03:57.128Z,7.50
2022-11-04T11:06:27.355Z,7.30
2022-11-04T11:08:56.452Z,7.30
2022-11-04T11:11:45.449Z,7.20
2022-11-04T11:14:21.466Z,7.20
2022-11-04T11:16:49.723Z,7.10
2022-11-04T11:19:19.481Z,7.10
2022-11-04T11:21:49.443Z,7.10
2022-11-04T11:24:21.232Z,6.90
2022-11-04T11:26:51.237Z,6.90
2022-11-04T11:29:24.945Z,6.90
2022-11-04T11:31:53.340Z,6.70
2022-11-04T11:34:26.530Z,6.80
2022-11-04T11:36:55.421Z,6.60
2022-11-04T11:39:24.606Z,6.60
2022-11-04T11:41:57.152Z,6.80
2022-11-04T11:44:28.678Z,6.70
2022-11-04T11:46:57.523Z,6.70
2022-11-04T11:49:28.916Z,6.60
2022-11-04T11:51:57.152Z,6.60
2022-11-04T11:54:29.640Z,6.90
2022-11-04T11:57:18.566Z,6.80
2022-11-04T12:02:42.191Z,7.10
2022-11-04T12:10:53.343Z,7.00
2022-11-04T12:13:26.762Z,7.10
2022-11-04T12:16:10.752Z,7.20
2022-11-04T12:18:48.937Z,7.30
2022-11-04T12:21:20.051Z,7.20
2022-11-04T12:23:52.375Z,7.20
2022-11-04T12:26:27.516Z,7.20
2022-11-04T12:29:09.499Z,7.40
2022-11-04T12:31:43.111Z,7.40
2022-11-04T12:34:15.892Z,7.60
2022-11-04T12:36:53.803Z,7.60
2022-11-04T12:39:31.670Z,7.70
2022-11-04T12:42:20.541Z,7.70
2022-11-04T12:44:55.186Z,7.70
2022-11-04T12:47:30.190Z,7.60
2022-11-04T12:50:07.503Z,7.70
2022-11-04T12:52:42.753Z,7.60
2022-11-04T12:55:25.570Z,7.40
2022-11-04T12:57:56.705Z,7.30
2022-11-04T13:00:28.387Z,7.50
2022-11-04T13:02:59.748Z,7.40
2022-11-04T13:05:37.635Z,7.30
2022-11-04T13:08:14.138Z,7.20
2022-11-04T13:10:45.126Z,7.30
2022-11-04T13:13:13.403Z,7.20
2022-11-04T13:15:46.164Z,7.20
2022-11-04T13:18:16.639Z,7.20
2022-11-04T13:20:45.880Z,7.20
2022-11-04T13:23:16.486Z,7.20
2022-11-04T13:25:45.787Z,7.00
2022-11-04T13:28:14.297Z,7.10
2022-11-04T13:30:47.218Z,7.20
2022-11-04T13:33:16.881Z,7.20
2022-11-04T13:35:48.984Z,7.30
2022-11-04T13:38:18.676Z,7.30
2022-11-04T13:40:51.083Z,7.30
2022-11-04T13:43:39.941Z,7.40
2022-11-04T13:46:19.179Z,7.50
2022-11-04T13:48:55.558Z,7.60
2022-11-04T13:51:23.708Z,7.50
2022-11-04T13:53:53.496Z,7.50
2022-11-04T13:56:33.948Z,7.50
2022-11-04T13:59:05.696Z,7.50
2022-11-04T14:01:35.742Z,7.60
2022-11-04T14:04:20.222Z,7.50
2022-11-04T14:06:55.743Z,7.50
2022-11-04T14:10:00.780Z,7.60
2022-11-04T14:12:35.743Z,7.50
2022-11-04T14:16:06.710Z,7.50
2022-11-04T14:18:36.499Z,7.50
2022-11-04T14:21:08.565Z,7.60
2022-11-04T14:23:37.140Z,7.40
2022-11-04T14:26:05.924Z,7.60
2022-11-04T14:28:33.975Z,7.60
2022-11-04T14:31:02.265Z,7.70
2022-11-04T14:33:37.176Z,7.70
2022-11-04T14:36:42.814Z,7.70
2022-11-04T14:39:23.337Z,7.80
2022-11-04T14:41:53.495Z,7.60
2022-11-04T14:44:27.266Z,7.70
2022-11-04T14:46:57.199Z,7.60
2022-11-04T14:49:41.203Z,7.70
2022-11-04T14:52:18.589Z,7.70
2022-11-04T14:54:46.704Z,7.70
2022-11-04T14:57:16.007Z,7.70
2022-11-04T14:59:44.252Z,7.60
2022-11-04T15:02:16.446Z,7.80
2022-11-04T15:04:52.287Z,7.80
2022-11-04T15:07:33.080Z,7.80
2022-11-04T15:10:02.160Z,7.80
2022-11-04T15:12:47.806Z,7.90
2022-11-04T15:15:33.480Z,7.80
2022-11-04T15:18:02.931Z,7.90
2022-11-04T15:20:32.662Z,7.80
2022-11-04T15:23:02.059Z,7.90
2022-11-04T15:25:30.085Z,8.00
2022-11-04T15:27:58.262Z,7.90
2022-11-04T15:30:27.588Z,8.00
2022-11-04T15:32:57.215Z,7.90
2022-11-04T15:35:25.605Z,7.70
2022-11-04T15:37:55.185Z,7.70
2022-11-04T15:40:23.105Z,7.60
2022-11-04T15:42:50.250Z,7.50
2022-11-04T15:45:36.092Z,7.50
2022-11-04T15:48:26.964Z,7.60
2022-11-04T15:50:59.130Z,7.60
2022-11-04T15:53:28.573Z,7.50
2022-11-04T15:55:57.081Z,7.40
2022-11-04T15:58:25.943Z,7.30
2022-11-04T16:00:54.979Z,7.40
2022-11-04T16:03:24.655Z,7.30
2022-11-04T16:06:03.968Z,7.20
2022-11-04T16:08:34.003Z,7.00
2022-11-04T16:11:26.843Z,7.00
2022-11-04T16:13:55.033Z,7.00
2022-11-04T16:16:24.420Z,6.90
2022-11-04T16:18:54.138Z,6.80
2022-11-04T16:21:24.234Z,6.70
2022-11-04T16:23:55.322Z,6.70
2022-11-04T16:26:25.819Z,6.60
2022-11-04T16:28:55.047Z,6.60
2022-11-04T16:31:28.018Z,6.60
2022-11-04T16:33:55.970Z,6.80
2022-11-04T16:36:34.112Z,6.70
2022-11-04T16:39:08.424Z,6.60
2022-11-04T16:41:37.639Z,6.60
2022-11-04T16:44:05.957Z,6.70
2022-11-04T16:46:33.953Z,6.70
2022-11-04T16:49:01.820Z,6.60
2022-11-04T16:51:29.760Z,6.60
2022-11-04T16:53:57.678Z,6.40
2022-11-04T16:56:26.956Z,6.30
2022-11-04T16:58:55.039Z,6.20
2022-11-04T17:01:23.164Z,6.10
2022-11-04T17:03:51.195Z,6.20
2022-11-04T17:06:19.912Z,6.10
2022-11-04T17:08:47.834Z,5.90
2022-11-04T17:11:15.857Z,5.80
2022-11-04T17:13:45.330Z,5.80
2022-11-04T17:16:14.627Z,5.80
2022-11-04T17:18:42.559Z,5.80
2022-11-04T17:21:12.332Z,5.80
2022-11-04T17:23:40.314Z,5.90
2022-11-04T17:26:08.218Z,5.90
2022-11-04T17:28:36.109Z,5.90
2022-11-04T17:31:05.382Z,5.80
2022-11-04T17:33:33.425Z,5.70
2022-11-04T17:36:07.258Z,5.70
2022-11-04T17:38:35.657Z,5.60
2022-11-04T17:41:21.003Z,5.60
2022-11-04T17:44:01.021Z,5.60
2022-11-04T17:46:38.080Z,6.10
2022-11-04T17:49:08.436Z,5.80
2022-11-04T17:51:36.946Z,5.80
2022-11-04T17:54:05.397Z,5.70
2022-11-04T17:56:33.384Z,5.80
2022-11-04T17:59:03.921Z,5.60
2022-11-04T18:01:34.014Z,5.50
2022-11-04T18:04:02.235Z,5.50
2022-11-04T18:06:31.505Z,5.50
2022-11-04T18:08:59.937Z,5.60
2022-11-04T18:11:46.587Z,5.50
2022-11-04T18:14:16.883Z,5.40
2022-11-04T18:16:48.164Z,5.50
2022-11-04T18:19:16.488Z,5.50
2022-11-04T18:21:44.388Z,5.40
2022-11-04T18:24:12.592Z,5.40
2022-11-04T18:26:40.782Z,5.40
2022-11-04T18:29:08.851Z,5.50
2022-11-04T18:31:37.509Z,5.50
2022-11-04T18:34:09.403Z,5.40
2022-11-04T18:36:38.374Z,5.50
2022-11-04T18:39:09.574Z,5.50
2022-11-04T18:41:39.829Z,5.50
2022-11-04T18:44:07.804Z,5.50
2022-11-04T18:46:35.739Z,5.50
2022-11-04T18:49:03.784Z,5.50
2022-11-04T18:51:33.113Z,5.30
2022-11-04T18:54:03.770Z,5.40
2022-11-04T18:56:31.877Z,5.50
2022-11-04T18:58:59.939Z,5.60
2022-11-04T19:01:29.865Z,5.60
2022-11-04T19:03:58.019Z,5.40
2022-11-04T19:06:26.980Z,5.40
2022-11-04T19:08:59.599Z,5.30
2022-11-04T19:11:31.024Z,5.20
2022-11-04T19:14:03.835Z,5.10
2022-11-04T19:16:35.050Z,5.30
2022-11-04T19:19:04.109Z,5.20
2022-11-04T19:21:32.124Z,4.90
2022-11-04T19:24:02.094Z,4.80
2022-11-04T19:26:31.307Z,4.50
2022-11-04T19:29:00.128Z,4.40
2022-11-04T19:31:28.928Z,4.40
2022-11-04T19:33:58.815Z,4.30
2022-11-04T19:36:27.040Z,4.30
2022-11-04T19:38:55.379Z,4.40
2022-11-04T19:41:42.109Z,4.30
2022-11-04T19:44:11.312Z,4.30
2022-11-04T19:46:39.351Z,4.10
2022-11-04T19:49:07.651Z,4.10
2022-11-04T19:51:36.038Z,4.10
2022-11-04T19:54:04.004Z,4.10
2022-11-04T19:56:34.373Z,4.10
2022-11-04T19:59:06.008Z,4.10
2022-11-04T20:01:35.292Z,4.20
2022-11-04T20:04:04.006Z,4.20
2022-11-04T20:06:32.492Z,3.90
2022-11-04T20:09:04.318Z,4.00
2022-11-04T20:11:33.668Z,4.00
2022-11-04T20:14:06.463Z,4.00
2022-11-04T20:16:39.567Z,4.10
2022-11-04T20:19:07.773Z,4.10
2022-11-04T20:21:36.519Z,4.00
2022-11-04T20:24:06.399Z,3.90
2022-11-04T20:26:36.737Z,3.90
2022-11-04T20:29:05.919Z,3.90
2022-11-04T20:31:34.984Z,3.90
2022-11-04T20:34:12.500Z,3.90
2022-11-04T20:36:40.787Z,3.80
2022-11-04T20:39:13.102Z,3.80
2022-11-04T20:41:42.659Z,3.80
2022-11-04T20:44:11.195Z,4.00
2022-11-04T20:46:39.356Z,4.00
2022-11-04T20:49:07.619Z,3.90
2022-11-04T20:51:36.679Z,3.80
2022-11-04T20:54:06.620Z,3.80
2022-11-04T20:56:35.807Z,3.80
2022-11-04T20:59:06.059Z,3.60
2022-11-04T21:01:36.025Z,3.60
2022-11-04T21:04:05.882Z,3.70
2022-11-04T21:06:34.210Z,3.60
2022-11-04T21:09:02.313Z,3.60
2022-11-04T21:11:32.466Z,3.70
2022-11-04T21:14:00.865Z,3.80
2022-11-04T21:16:30.582Z,4.00
2022-11-04T21:18:59.630Z,3.90
2022-11-04T21:21:28.498Z,3.90
2022-11-04T21:23:59.795Z,3.80
2022-11-04T21:26:29.308Z,3.90
2022-11-04T21:28:57.273Z,3.90
2022-11-04T21:31:25.419Z,4.00
2022-11-04T21:33:54.821Z,4.00
2022-11-04T21:36:23.197Z,4.10
2022-11-04T21:38:51.416Z,4.10
2022-11-04T21:41:22.132Z,4.20
2022-11-04T21:43:51.582Z,4.10
2022-11-04T21:46:19.657Z,4.20
2022-11-04T21:48:48.042Z,4.30
2022-11-04T21:51:18.097Z,4.30
2022-11-04T21:53:46.235Z,4.20
2022-11-04T21:56:15.403Z,4.10
2022-11-04T21:58:44.238Z,4.20
2022-11-04T22:01:13.378Z,4.10
2022-11-04T22:03:41.603Z,4.10
2022-11-04T22:06:10.727Z,4.20
2022-11-04T22:08:40.340Z,4.00
2022-11-04T22:11:09.130Z,3.90
2022-11-04T22:13:37.455Z,4.00
2022-11-04T22:16:12.033Z,4.30
2022-11-04T22:18:40.392Z,3.90
2022-11-04T22:21:09.720Z,4.00
2022-11-04T22:23:39.441Z,4.20
2022-11-04T22:26:08.519Z,4.20
2022-11-04T22:28:36.811Z,4.20
2022-11-04T22:31:08.312Z,4.10
2022-11-04T22:33:37.828Z,4.00
2022-11-04T22:39:16.735Z,3.90
2022-11-04T22:41:46.384Z,3.90
2022-11-04T22:44:14.974Z,4.00
2022-11-04T22:46:43.541Z,4.10
2022-11-04T22:49:11.959Z,4.10
2022-11-04T22:51:40.206Z,4.10
2022-11-04T22:54:10.482Z,4.20
2022-11-04T22:56:40.063Z,4.20
2022-11-04T22:59:08.363Z,4.30
2022-11-04T23:01:37.137Z,4.40
2022-11-04T23:04:05.732Z,4.30
2022-11-04T23:06:33.958Z,4.30
2022-11-04T23:09:02.096Z,4.30
2022-11-04T23:11:48.728Z,4.50
2022-11-04T23:18:27.013Z,4.30
2022-11-04T23:21:15.324Z,4.20
2022-11-04T23:24:01.348Z,4.10
2022-11-04T23:26:30.018Z,4.10
2022-11-04T23:29:15.644Z,4.00
2022-11-04T23:31:45.640Z,4.10
2022-11-04T23:34:32.146Z,4.10
2022-11-04T23:37:15.785Z,4.10
2022-11-04T23:39:44.706Z,4.20
2022-11-04T23:42:20.323Z,4.30
2022-11-04T23:45:07.936Z,4.50
2022-11-04T23:47:55.890Z,4.50
2022-11-04T23:50:41.679Z,4.50
2022-11-04T23:53:27.775Z,4.30
2022-11-04T23:56:13.905Z,4.10
2022-11-04T23:59:00.024Z,3.90
